Terminal Aerodrome Forecast
Issued by NWS

Home | Current Version | Previous Version | Text Only | Print | Product List | Glossary On
Versions: 1 2 3 4 5 6 7 8 9 10 11 12 13
000
FTUS44 KTSA 012340
TAFBVO
TAF
KBVO 012340Z 0200/0224 19012KT P6SM FEW050 BKN120
     FM020900 20008KT P6SM SCT250
     FM021500 35007KT P6SM BKN120
     FM022000 02010KT P6SM SCT060 BKN120 PROB30 0220/0224 -TSRA
      BKN050CB=

USA.gov is the U.S. government's official web portal to all federal, state and local government web resources and services.